sensor_id;sensor_type;location;lat;lon;timestamp;pressure;altitude;pressure_sealevel;temperature;humidity
28181;BME280;15464;50.988;10.318;2023-05-12T00:01:15;98912.94;;;11.09;100.00
28181;BME280;15464;50.988;10.318;2023-05-12T00:03:42;98910.28;;;11.09;100.00
28181;BME280;15464;50.988;10.318;2023-05-12T00:06:09;98909.19;;;11.11;100.00
28181;BME280;15464;50.988;10.318;2023-05-12T00:08:37;98907.50;;;11.10;100.00
28181;BME280;15464;50.988;10.318;2023-05-12T00:11:03;98907.50;;;11.10;100.00
28181;BME280;15464;50.988;10.318;2023-05-12T00:13:30;98904.13;;;11.08;100.00
28181;BME280;15464;50.988;10.318;2023-05-12T00:15:56;98898.25;;;11.05;100.00
28181;BME280;15464;50.988;10.318;2023-05-12T00:18:24;98904.41;;;11.05;100.00
28181;BME280;15464;50.988;10.318;2023-05-12T00:20:53;98900.75;;;11.06;100.00
28181;BME280;15464;50.988;10.318;2023-05-12T00:23:21;98906.91;;;11.07;100.00
28181;BME280;15464;50.988;10.318;2023-05-12T00:25:48;98902.44;;;11.07;100.00
28181;BME280;15464;50.988;10.318;2023-05-12T00:28:17;98903.28;;;11.08;100.00
28181;BME280;15464;50.988;10.318;2023-05-12T00:30:44;98895.59;;;11.05;100.00
28181;BME280;15464;50.988;10.318;2023-05-12T00:33:10;98897.69;;;11.01;100.00
28181;BME280;15464;50.988;10.318;2023-05-12T00:35:37;98896.00;;;11.00;100.00
28181;BME280;15464;50.988;10.318;2023-05-12T00:38:04;98893.50;;;10.99;100.00
28181;BME280;15464;50.988;10.318;2023-05-12T00:40:30;98899.66;;;10.99;100.00
28181;BME280;15464;50.988;10.318;2023-05-12T00:42:57;98893.22;;;11.02;100.00
28181;BME280;15464;50.988;10.318;2023-05-12T00:45:24;98894.19;;;11.01;100.00
28181;BME280;15464;50.988;10.318;2023-05-12T00:47:51;98896.00;;;11.00;100.00
28181;BME280;15464;50.988;10.318;2023-05-12T00:50:19;98898.53;;;11.02;100.00
28181;BME280;15464;50.988;10.318;2023-05-12T00:52:49;98899.66;;;10.99;100.00
28181;BME280;15464;50.988;10.318;2023-05-12T00:55:17;98897.00;;;10.99;100.00
28181;BME280;15464;50.988;10.318;2023-05-12T00:57:44;98893.63;;;10.97;100.00
28181;BME280;15464;50.988;10.318;2023-05-12T01:00:11;98892.91;;;10.95;100.00
28181;BME280;15464;50.988;10.318;2023-05-12T01:02:38;98895.44;;;10.97;100.00
28181;BME280;15464;50.988;10.318;2023-05-12T01:05:05;98889.28;;;10.96;100.00
28181;BME280;15464;50.988;10.318;2023-05-12T01:07:32;98891.09;;;10.96;100.00
28181;BME280;15464;50.988;10.318;2023-05-12T01:09:59;98894.59;;;10.96;100.00
28181;BME280;15464;50.988;10.318;2023-05-12T01:12:26;98893.75;;;10.96;100.00
28181;BME280;15464;50.988;10.318;2023-05-12T01:14:54;98887.59;;;10.95;100.00
28181;BME280;15464;50.988;10.318;2023-05-12T01:17:31;98892.22;;;10.93;100.00
28181;BME280;15464;50.988;10.318;2023-05-12T01:20:01;98898.31;;;10.84;100.00
28181;BME280;15464;50.988;10.318;2023-05-12T01:22:30;98903.50;;;10.85;100.00
28181;BME280;15464;50.988;10.318;2023-05-12T01:25:04;98895.66;;;10.84;100.00
28181;BME280;15464;50.988;10.318;2023-05-12T01:27:33;98891.19;;;10.84;100.00
28181;BME280;15464;50.988;10.318;2023-05-12T01:30:02;98897.06;;;10.88;100.00
28181;BME280;15464;50.988;10.318;2023-05-12T01:32:29;98897.06;;;10.88;100.00
28181;BME280;15464;50.988;10.318;2023-05-12T01:34:56;98899.03;;;10.86;100.00
28181;BME280;15464;50.988;10.318;2023-05-12T01:37:23;98902.66;;;10.85;100.00
28181;BME280;15464;50.988;10.318;2023-05-12T01:39:52;98905.84;;;10.79;100.00
28181;BME280;15464;50.988;10.318;2023-05-12T01:42:19;98902.34;;;10.78;100.00
28181;BME280;15464;50.988;10.318;2023-05-12T01:44:46;98903.19;;;10.79;100.00
28181;BME280;15464;50.988;10.318;2023-05-12T01:47:12;98908.50;;;10.79;100.00
28181;BME280;15464;50.988;10.318;2023-05-12T01:49:41;98904.88;;;10.80;100.00
28181;BME280;15464;50.988;10.318;2023-05-12T01:52:08;98907.53;;;10.80;100.00
28181;BME280;15464;50.988;10.318;2023-05-12T01:54:34;98909.72;;;10.75;100.00
28181;BME280;15464;50.988;10.318;2023-05-12T01:57:01;98909.72;;;10.75;100.00
28181;BME280;15464;50.988;10.318;2023-05-12T01:59:28;98917.69;;;10.75;100.00
28181;BME280;15464;50.988;10.318;2023-05-12T02:01:54;98912.38;;;10.75;100.00
28181;BME280;15464;50.988;10.318;2023-05-12T02:04:21;98916.03;;;10.74;100.00
28181;BME280;15464;50.988;10.318;2023-05-12T02:06:48;98909.72;;;10.75;100.00
28181;BME280;15464;50.988;10.318;2023-05-12T02:09:15;98914.06;;;10.76;100.00
28181;BME280;15464;50.988;10.318;2023-05-12T02:11:41;98915.75;;;10.77;100.00
28181;BME280;15464;50.988;10.318;2023-05-12T02:14:08;98917.69;;;10.75;100.00
28181;BME280;15464;50.988;10.318;2023-05-12T02:16:34;98920.31;;;10.75;100.00
28181;BME280;15464;50.988;10.318;2023-05-12T02:19:01;98917.69;;;10.75;100.00
28181;BME280;15464;50.988;10.318;2023-05-12T02:21:28;98924.66;;;10.76;100.00
28181;BME280;15464;50.988;10.318;2023-05-12T02:23:54;98922.84;;;10.76;100.00
28181;BME280;15464;50.988;10.318;2023-05-12T02:26:21;98922.00;;;10.76;100.00
28181;BME280;15464;50.988;10.318;2023-05-12T02:28:48;98916.88;;;10.74;100.00
28181;BME280;15464;50.988;10.318;2023-05-12T02:31:14;98924.81;;;10.74;100.00
28181;BME280;15464;50.988;10.318;2023-05-12T02:33:41;98928.56;;;10.72;100.00
28181;BME280;15464;50.988;10.318;2023-05-12T02:36:08;98925.06;;;10.71;100.00
28181;BME280;15464;50.988;10.318;2023-05-12T02:38:35;98928.56;;;10.72;100.00
28181;BME280;15464;50.988;10.318;2023-05-12T02:41:01;98925.91;;;10.72;100.00
28181;BME280;15464;50.988;10.318;2023-05-12T02:43:28;98927.84;;;10.70;100.00
28181;BME280;15464;50.988;10.318;2023-05-12T02:45:55;98927.16;;;10.68;100.00
28181;BME280;15464;50.988;10.318;2023-05-12T02:48:21;98923.78;;;10.66;100.00
28181;BME280;15464;50.988;10.318;2023-05-12T02:50:48;98923.78;;;10.66;100.00
28181;BME280;15464;50.988;10.318;2023-05-12T02:53:15;98922.22;;;10.63;100.00
28181;BME280;15464;50.988;10.318;2023-05-12T02:55:41;98917.06;;;10.62;100.00
28181;BME280;15464;50.988;10.318;2023-05-12T02:58:08;98914.56;;;10.60;100.00
28181;BME280;15464;50.988;10.318;2023-05-12T03:00:35;98919.13;;;10.58;100.00
28181;BME280;15464;50.988;10.318;2023-05-12T03:03:02;98923.59;;;10.58;100.00
28181;BME280;15464;50.988;10.318;2023-05-12T03:05:29;98919.25;;;10.57;100.00
28181;BME280;15464;50.988;10.318;2023-05-12T03:07:56;98911.31;;;10.57;100.00
28181;BME280;15464;50.988;10.318;2023-05-12T03:10:22;98922.91;;;10.56;100.00
28181;BME280;15464;50.988;10.318;2023-05-12T03:12:49;98915.91;;;10.55;100.00
28181;BME280;15464;50.988;10.318;2023-05-12T03:15:16;98916.88;;;10.54;100.00
28181;BME280;15464;50.988;10.318;2023-05-12T03:17:42;98920.50;;;10.52;100.00
28181;BME280;15464;50.988;10.318;2023-05-12T03:20:09;98921.47;;;10.51;100.00
28181;BME280;15464;50.988;10.318;2023-05-12T03:22:36;98927.06;;;10.48;100.00
28181;BME280;15464;50.988;10.318;2023-05-12T03:25:03;98920.19;;;10.46;100.00
28181;BME280;15464;50.988;10.318;2023-05-12T03:27:31;98920.31;;;10.44;100.00
28181;BME280;15464;50.988;10.318;2023-05-12T03:29:58;98917.81;;;10.43;100.00
28181;BME280;15464;50.988;10.318;2023-05-12T03:32:30;98930.34;;;10.41;100.00
28181;BME280;15464;50.988;10.318;2023-05-12T03:34:57;98931.44;;;10.38;100.00
28181;BME280;15464;50.988;10.318;2023-05-12T03:37:24;98927.09;;;10.37;100.00
28181;BME280;15464;50.988;10.318;2023-05-12T03:39:50;98935.34;;;10.34;100.00
28181;BME280;15464;50.988;10.318;2023-05-12T03:42:17;98930.16;;;10.33;100.00
28181;BME280;15464;50.988;10.318;2023-05-12T03:44:44;98935.56;;;10.31;100.00
28181;BME280;15464;50.988;10.318;2023-05-12T03:47:11;98937.53;;;10.29;100.00
28181;BME280;15464;50.988;10.318;2023-05-12T03:49:39;98926.47;;;10.24;100.00
28181;BME280;15464;50.988;10.318;2023-05-12T03:52:06;98929.13;;;10.24;100.00
28181;BME280;15464;50.988;10.318;2023-05-12T03:54:32;98918.53;;;10.24;100.00
28181;BME280;15464;50.988;10.318;2023-05-12T03:57:02;98923.84;;;10.24;100.00
28181;BME280;15464;50.988;10.318;2023-05-12T03:59:29;98931.06;;;10.22;100.00
28181;BME280;15464;50.988;10.318;2023-05-12T04:01:57;98926.00;;;10.19;100.00
28181;BME280;15464;50.988;10.318;2023-05-12T04:04:24;98929.63;;;10.18;100.00
28181;BME280;15464;50.988;10.318;2023-05-12T04:06:50;98928.91;;;10.16;100.00
28181;BME280;15464;50.988;10.318;2023-05-12T04:09:17;98934.09;;;10.18;100.00
28181;BME280;15464;50.988;10.318;2023-05-12T04:11:45;98941.91;;;10.19;100.00
28181;BME280;15464;50.988;10.318;2023-05-12T04:14:12;98941.91;;;10.19;100.00
28181;BME280;15464;50.988;10.318;2023-05-12T04:16:38;98944.44;;;10.21;100.00
28181;BME280;15464;50.988;10.318;2023-05-12T04:19:06;98941.66;;;10.22;100.00
28181;BME280;15464;50.988;10.318;2023-05-12T04:21:33;98937.78;;;10.26;100.00
28181;BME280;15464;50.988;10.318;2023-05-12T04:23:59;98942.00;;;10.29;100.00
28181;BME280;15464;50.988;10.318;2023-05-12T04:26:26;98938.94;;;10.33;100.00
28181;BME280;15464;50.988;10.318;2023-05-12T04:28:53;98937.88;;;10.36;100.00
28181;BME280;15464;50.988;10.318;2023-05-12T04:31:19;98938.44;;;10.39;100.00
28181;BME280;15464;50.988;10.318;2023-05-12T04:33:46;98943.22;;;10.45;100.00
28181;BME280;15464;50.988;10.318;2023-05-12T04:36:14;98948.97;;;10.50;100.00
28181;BME280;15464;50.988;10.318;2023-05-12T04:38:40;98945.78;;;10.57;100.00
28181;BME280;15464;50.988;10.318;2023-05-12T04:41:07;98946.94;;;10.64;100.00
28181;BME280;15464;50.988;10.318;2023-05-12T04:43:34;98946.94;;;10.64;100.00
28181;BME280;15464;50.988;10.318;2023-05-12T04:46:04;98952.22;;;10.54;100.00
28181;BME280;15464;50.988;10.318;2023-05-12T04:48:31;98953.94;;;10.65;100.00
28181;BME280;15464;50.988;10.318;2023-05-12T04:50:58;98951.19;;;10.76;100.00
28181;BME280;15464;50.988;10.318;2023-05-12T04:53:26;98950.28;;;10.86;100.00
28181;BME280;15464;50.988;10.318;2023-05-12T04:55:53;98961.22;;;10.93;100.00
28181;BME280;15464;50.988;10.318;2023-05-12T04:58:21;98952.97;;;10.96;100.00
28181;BME280;15464;50.988;10.318;2023-05-12T05:00:48;98955.22;;;11.01;100.00
28181;BME280;15464;50.988;10.318;2023-05-12T05:03:15;98955.09;;;11.02;100.00
28181;BME280;15464;50.988;10.318;2023-05-12T05:05:42;98953.53;;;11.00;100.00
28181;BME280;15464;50.988;10.318;2023-05-12T05:08:09;98959.16;;;11.06;100.00
28181;BME280;15464;50.988;10.318;2023-05-12T05:10:35;98955.72;;;11.15;100.00
28181;BME280;15464;50.988;10.318;2023-05-12T05:13:02;98958.78;;;11.20;100.00
28181;BME280;15464;50.988;10.318;2023-05-12T05:15:29;98961.63;;;11.28;100.00
28181;BME280;15464;50.988;10.318;2023-05-12T05:17:56;98961.09;;;11.35;100.00
28181;BME280;15464;50.988;10.318;2023-05-12T05:20:26;98957.88;;;11.41;100.00
28181;BME280;15464;50.988;10.318;2023-05-12T05:22:54;98964.34;;;11.48;100.00
28181;BME280;15464;50.988;10.318;2023-05-12T05:25:21;98963.22;;;11.50;100.00
28181;BME280;15464;50.988;10.318;2023-05-12T05:27:48;98966.31;;;11.55;100.00
28181;BME280;15464;50.988;10.318;2023-05-12T05:30:15;98968.16;;;11.64;100.00
28181;BME280;15464;50.988;10.318;2023-05-12T05:32:42;98969.28;;;11.71;100.00
28181;BME280;15464;50.988;10.318;2023-05-12T05:35:09;98970.56;;;11.77;100.00
28181;BME280;15464;50.988;10.318;2023-05-12T05:37:36;98968.34;;;11.82;100.00
28181;BME280;15464;50.988;10.318;2023-05-12T05:40:03;98969.47;;;11.89;100.00
28181;BME280;15464;50.988;10.318;2023-05-12T05:42:30;98972.00;;;11.91;100.00
28181;BME280;15464;50.988;10.318;2023-05-12T05:44:56;98979.53;;;11.95;100.00
28181;BME280;15464;50.988;10.318;2023-05-12T05:47:23;98972.56;;;12.04;100.00
28181;BME280;15464;50.988;10.318;2023-05-12T05:49:50;98974.78;;;12.08;100.00
28181;BME280;15464;50.988;10.318;2023-05-12T05:52:16;98975.91;;;12.16;100.00
28181;BME280;15464;50.988;10.318;2023-05-12T05:54:43;98984.31;;;12.21;100.00
28181;BME280;15464;50.988;10.318;2023-05-12T05:57:10;98975.91;;;12.25;100.00
28181;BME280;15464;50.988;10.318;2023-05-12T05:59:36;98978.84;;;12.32;100.00
28181;BME280;15464;50.988;10.318;2023-05-12T06:02:03;98980.09;;;12.37;100.00
28181;BME280;15464;50.988;10.318;2023-05-12T06:04:30;98991.31;;;12.41;100.00
28181;BME280;15464;50.988;10.318;2023-05-12T06:06:57;98989.06;;;12.46;100.00
28181;BME280;15464;50.988;10.318;2023-05-12T06:09:24;98984.84;;;12.53;100.00
28181;BME280;15464;50.988;10.318;2023-05-12T06:11:50;98986.81;;;12.61;100.00
28181;BME280;15464;50.988;10.318;2023-05-12T06:14:17;98985.94;;;12.70;100.00
28181;BME280;15464;50.988;10.318;2023-05-12T06:16:44;98992.38;;;12.77;100.00
28181;BME280;15464;50.988;10.318;2023-05-12T06:19:11;98987.03;;;12.86;100.00
28181;BME280;15464;50.988;10.318;2023-05-12T06:21:38;98987.00;;;12.96;100.00
28181;BME280;15464;50.988;10.318;2023-05-12T06:24:04;98991.22;;;12.89;100.00
28181;BME280;15464;50.988;10.318;2023-05-12T06:26:31;98995.28;;;12.83;100.00
28181;BME280;15464;50.988;10.318;2023-05-12T06:28:58;98994.00;;;12.87;100.00
28181;BME280;15464;50.988;10.318;2023-05-12T06:31:25;98998.75;;;12.93;100.00
28181;BME280;15464;50.988;10.318;2023-05-12T06:33:52;98991.03;;;13.00;100.00
28181;BME280;15464;50.988;10.318;2023-05-12T06:36:18;98987.50;;;13.09;100.00
28181;BME280;15464;50.988;10.318;2023-05-12T06:38:45;98994.09;;;13.15;100.00
28181;BME280;15464;50.988;10.318;2023-05-12T06:41:12;98989.31;;;13.18;100.00
28181;BME280;15464;50.988;10.318;2023-05-12T06:43:39;98987.91;;;13.24;100.00
28181;BME280;15464;50.988;10.318;2023-05-12T06:46:05;98986.31;;;13.31;100.00
28181;BME280;15464;50.988;10.318;2023-05-12T06:48:32;98981.31;;;13.28;100.00
28181;BME280;15464;50.988;10.318;2023-05-12T06:50:59;98990.00;;;13.30;100.00
28181;BME280;15464;50.988;10.318;2023-05-12T06:53:25;98992.06;;;13.36;100.00
28181;BME280;15464;50.988;10.318;2023-05-12T06:55:52;98990.25;;;13.37;100.00
28181;BME280;15464;50.988;10.318;2023-05-12T06:58:20;98992.81;;;13.19;96.41
28181;BME280;15464;50.988;10.318;2023-05-12T07:00:47;98991.16;;;13.18;95.78
28181;BME280;15464;50.988;10.318;2023-05-12T07:03:14;98993.91;;;13.26;95.72
28181;BME280;15464;50.988;10.318;2023-05-12T07:05:41;98995.59;;;13.27;97.04
28181;BME280;15464;50.988;10.318;2023-05-12T07:08:08;99003.16;;;13.31;100.00
28181;BME280;15464;50.988;10.318;2023-05-12T07:10:34;98995.38;;;13.11;99.85
28181;BME280;15464;50.988;10.318;2023-05-12T07:13:01;99005.47;;;13.17;100.00
28181;BME280;15464;50.988;10.318;2023-05-12T07:15:28;99003.78;;;13.43;100.00
28181;BME280;15464;50.988;10.318;2023-05-12T07:17:58;99000.88;;;13.64;100.00
28181;BME280;15464;50.988;10.318;2023-05-12T07:20:24;99001.22;;;13.79;100.00
28181;BME280;15464;50.988;10.318;2023-05-12T07:22:51;99002.22;;;13.78;99.46
28181;BME280;15464;50.988;10.318;2023-05-12T07:25:20;98992.91;;;13.82;98.00
28181;BME280;15464;50.988;10.318;2023-05-12T07:27:47;98995.16;;;14.04;99.22
28181;BME280;15464;50.988;10.318;2023-05-12T07:30:15;98998.06;;;13.93;98.39
28181;BME280;15464;50.988;10.318;2023-05-12T07:32:42;98984.34;;;14.23;98.78
28181;BME280;15464;50.988;10.318;2023-05-12T07:35:09;98987.91;;;14.49;97.99
28181;BME280;15464;50.988;10.318;2023-05-12T07:37:36;98988.47;;;14.53;93.97
28181;BME280;15464;50.988;10.318;2023-05-12T07:40:03;98980.84;;;14.84;91.59
28181;BME280;15464;50.988;10.318;2023-05-12T07:42:30;98987.41;;;14.89;88.54
28181;BME280;15464;50.988;10.318;2023-05-12T07:44:57;98984.31;;;15.02;89.79
28181;BME280;15464;50.988;10.318;2023-05-12T07:47:24;98984.34;;;15.10;89.35
28181;BME280;15464;50.988;10.318;2023-05-12T07:49:50;98987.03;;;15.10;89.13
28181;BME280;15464;50.988;10.318;2023-05-12T07:52:17;98980.53;;;15.47;90.83
28181;BME280;15464;50.988;10.318;2023-05-12T07:54:44;98978.66;;;15.73;90.08
28181;BME280;15464;50.988;10.318;2023-05-12T07:57:11;98975.84;;;15.91;89.28
28181;BME280;15464;50.988;10.318;2023-05-12T07:59:37;98979.06;;;16.10;89.02
28181;BME280;15464;50.988;10.318;2023-05-12T08:02:04;98972.53;;;16.21;86.96
28181;BME280;15464;50.988;10.318;2023-05-12T08:04:31;98971.22;;;16.58;86.83
28181;BME280;15464;50.988;10.318;2023-05-12T08:06:57;98971.75;;;16.61;85.06
28181;BME280;15464;50.988;10.318;2023-05-12T08:09:24;98976.09;;;16.70;85.12
28181;BME280;15464;50.988;10.318;2023-05-12T08:11:51;98975.56;;;16.83;83.56
28181;BME280;15464;50.988;10.318;2023-05-12T08:14:17;98974.22;;;16.87;82.87
28181;BME280;15464;50.988;10.318;2023-05-12T08:16:44;98972.97;;;17.14;83.14
28181;BME280;15464;50.988;10.318;2023-05-12T08:19:12;98967.63;;;17.14;82.15
28181;BME280;15464;50.988;10.318;2023-05-12T08:21:39;98969.09;;;17.24;81.10
28181;BME280;15464;50.988;10.318;2023-05-12T08:24:06;98964.56;;;17.25;79.08
28181;BME280;15464;50.988;10.318;2023-05-12T08:26:32;98967.22;;;17.33;79.54
28181;BME280;15464;50.988;10.318;2023-05-12T08:28:59;98967.81;;;17.51;79.06
28181;BME280;15464;50.988;10.318;2023-05-12T08:31:26;98972.97;;;17.69;80.03
28181;BME280;15464;50.988;10.318;2023-05-12T08:33:53;98970.72;;;17.81;73.25
28181;BME280;15464;50.988;10.318;2023-05-12T08:36:24;98969.97;;;17.64;72.47
28181;BME280;15464;50.988;10.318;2023-05-12T08:38:51;98967.28;;;17.64;72.15
28181;BME280;15464;50.988;10.318;2023-05-12T08:41:22;98972.50;;;17.49;72.49
28181;BME280;15464;50.988;10.318;2023-05-12T08:43:51;98972.25;;;17.36;76.23
28181;BME280;15464;50.988;10.318;2023-05-12T08:46:18;98973.84;;;17.53;78.02
28181;BME280;15464;50.988;10.318;2023-05-12T08:48:46;98976.53;;;17.61;76.88
28181;BME280;15464;50.988;10.318;2023-05-12T08:51:17;98973.91;;;17.37;75.02
28181;BME280;15464;50.988;10.318;2023-05-12T08:53:46;98974.41;;;17.41;71.51
28181;BME280;15464;50.988;10.318;2023-05-12T08:56:16;98976.31;;;17.24;74.71
28181;BME280;15464;50.988;10.318;2023-05-12T08:58:48;98975.69;;;17.06;75.84
28181;BME280;15464;50.988;10.318;2023-05-12T09:01:15;98980.88;;;17.15;74.43
28181;BME280;15464;50.988;10.318;2023-05-12T09:03:43;98985.75;;;16.87;72.89
28181;BME280;15464;50.988;10.318;2023-05-12T09:06:11;98978.94;;;16.77;74.05
28181;BME280;15464;50.988;10.318;2023-05-12T09:08:39;98977.41;;;16.90;72.61
28181;BME280;15464;50.988;10.318;2023-05-12T09:11:09;98985.59;;;17.05;73.95
28181;BME280;15464;50.988;10.318;2023-05-12T09:16:12;98988.00;;;16.68;72.15
28181;BME280;15464;50.988;10.318;2023-05-12T09:18:46;98990.47;;;16.69;72.08
28181;BME280;15464;50.988;10.318;2023-05-12T09:21:14;98992.47;;;16.59;72.83
28181;BME280;15464;50.988;10.318;2023-05-12T09:23:54;98992.81;;;16.80;72.43
28181;BME280;15464;50.988;10.318;2023-05-12T09:26:22;98984.94;;;16.87;73.32
28181;BME280;15464;50.988;10.318;2023-05-12T09:28:51;98995.81;;;16.93;71.69
28181;BME280;15464;50.988;10.318;2023-05-12T09:31:20;98988.59;;;16.94;72.31
28181;BME280;15464;50.988;10.318;2023-05-12T09:33:49;98996.31;;;16.89;71.84
28181;BME280;15464;50.988;10.318;2023-05-12T09:36:17;98991.97;;;16.88;70.37
28181;BME280;15464;50.988;10.318;2023-05-12T09:38:44;99000.50;;;16.91;70.40
28181;BME280;15464;50.988;10.318;2023-05-12T09:41:11;98997.63;;;17.01;74.90
28181;BME280;15464;50.988;10.318;2023-05-12T09:43:44;99002.75;;;17.35;77.14
28181;BME280;15464;50.988;10.318;2023-05-12T09:46:11;98999.03;;;17.44;74.12
28181;BME280;15464;50.988;10.318;2023-05-12T09:48:40;98993.31;;;17.47;73.10
28181;BME280;15464;50.988;10.318;2023-05-12T09:51:09;98992.59;;;17.69;69.45
28181;BME280;15464;50.988;10.318;2023-05-12T09:53:40;98999.09;;;17.75;72.09
28181;BME280;15464;50.988;10.318;2023-05-12T09:56:09;98993.66;;;17.91;69.21
28181;BME280;15464;50.988;10.318;2023-05-12T09:58:41;98986.94;;;18.18;70.97
28181;BME280;15464;50.988;10.318;2023-05-12T10:01:11;98991.72;;;18.31;71.82
28181;BME280;15464;50.988;10.318;2023-05-12T10:03:51;98986.47;;;18.14;69.44
28181;BME280;15464;50.988;10.318;2023-05-12T10:06:30;98988.72;;;18.03;64.72
28181;BME280;15464;50.988;10.318;2023-05-12T10:11:45;98983.78;;;18.37;64.00
28181;BME280;15464;50.988;10.318;2023-05-12T10:14:12;98989.13;;;18.37;65.44
28181;BME280;15464;50.988;10.318;2023-05-12T10:16:40;98983.91;;;18.21;66.76
28181;BME280;15464;50.988;10.318;2023-05-12T10:19:07;98976.03;;;18.42;71.82
28181;BME280;15464;50.988;10.318;2023-05-12T10:21:36;98982.81;;;18.30;66.92
28181;BME280;15464;50.988;10.318;2023-05-12T10:24:04;98981.75;;;18.17;67.51
28181;BME280;15464;50.988;10.318;2023-05-12T10:26:36;98985.81;;;18.35;66.96
28181;BME280;15464;50.988;10.318;2023-05-12T10:29:05;98983.47;;;18.32;66.39
28181;BME280;15464;50.988;10.318;2023-05-12T10:31:32;98972.56;;;18.57;66.43
28181;BME280;15464;50.988;10.318;2023-05-12T10:34:02;98965.31;;;18.80;67.15
28181;BME280;15464;50.988;10.318;2023-05-12T10:36:28;98968.94;;;18.87;64.00
28181;BME280;15464;50.988;10.318;2023-05-12T10:39:05;98978.81;;;18.72;62.33
28181;BME280;15464;50.988;10.318;2023-05-12T10:41:33;98975.88;;;18.81;62.88
28181;BME280;15464;50.988;10.318;2023-05-12T10:46:27;98979.31;;;18.90;59.92
28181;BME280;15464;50.988;10.318;2023-05-12T10:49:02;98969.88;;;18.94;59.44
28181;BME280;15464;50.988;10.318;2023-05-12T10:51:31;98980.22;;;18.82;61.04
28181;BME280;15464;50.988;10.318;2023-05-12T10:54:06;98972.06;;;18.76;60.17
28181;BME280;15464;50.988;10.318;2023-05-12T11:01:41;98959.63;;;18.75;58.71
28181;BME280;15464;50.988;10.318;2023-05-12T11:04:14;98960.31;;;19.06;57.31
28181;BME280;15464;50.988;10.318;2023-05-12T11:06:42;98958.69;;;19.34;55.62
28181;BME280;15464;50.988;10.318;2023-05-12T11:09:11;98966.56;;;19.51;54.47
28181;BME280;15464;50.988;10.318;2023-05-12T11:11:39;98967.56;;;19.64;56.70
28181;BME280;15464;50.988;10.318;2023-05-12T11:14:07;98965.56;;;19.88;54.21
28181;BME280;15464;50.988;10.318;2023-05-12T11:16:40;98966.38;;;20.03;52.25
28181;BME280;15464;50.988;10.318;2023-05-12T11:19:07;98966.44;;;20.09;55.55
28181;BME280;15464;50.988;10.318;2023-05-12T11:21:34;98964.59;;;20.10;52.31
28181;BME280;15464;50.988;10.318;2023-05-12T11:24:02;98963.25;;;20.21;53.16
28181;BME280;15464;50.988;10.318;2023-05-12T11:26:29;98952.34;;;20.71;52.86
28181;BME280;15464;50.988;10.318;2023-05-12T11:28:57;98950.72;;;21.05;52.81
28181;BME280;15464;50.988;10.318;2023-05-12T11:31:24;98958.81;;;21.05;53.18
28181;BME280;15464;50.988;10.318;2023-05-12T11:34:02;98954.34;;;20.90;53.97
28181;BME280;15464;50.988;10.318;2023-05-12T11:36:39;98954.81;;;21.01;52.95
28181;BME280;15464;50.988;10.318;2023-05-12T11:39:21;98959.94;;;20.61;51.61
28181;BME280;15464;50.988;10.318;2023-05-12T11:41:49;98958.75;;;20.49;50.77
28181;BME280;15464;50.988;10.318;2023-05-12T11:44:27;98970.75;;;20.25;51.29
28181;BME280;15464;50.988;10.318;2023-05-12T11:49:50;98964.44;;;20.54;47.36
28181;BME280;15464;50.988;10.318;2023-05-12T11:52:19;98959.59;;;20.71;47.97
28181;BME280;15464;50.988;10.318;2023-05-12T11:54:50;98960.41;;;20.99;46.87
28181;BME280;15464;50.988;10.318;2023-05-12T11:57:28;98963.28;;;21.19;46.82
28181;BME280;15464;50.988;10.318;2023-05-12T12:00:04;98967.34;;;21.36;45.21
28181;BME280;15464;50.988;10.318;2023-05-12T12:02:33;98965.44;;;21.30;45.03
28181;BME280;15464;50.988;10.318;2023-05-12T12:05:01;98960.72;;;21.45;45.27
28181;BME280;15464;50.988;10.318;2023-05-12T12:07:33;98962.94;;;20.73;46.76
28181;BME280;15464;50.988;10.318;2023-05-12T12:10:15;98956.84;;;20.43;44.16
28181;BME280;15464;50.988;10.318;2023-05-12T12:12:42;98967.91;;;20.76;47.12
28181;BME280;15464;50.988;10.318;2023-05-12T12:15:10;98958.63;;;20.57;46.48
28181;BME280;15464;50.988;10.318;2023-05-12T12:17:38;98961.88;;;20.31;45.63
28181;BME280;15464;50.988;10.318;2023-05-12T12:20:06;98965.50;;;20.38;46.14
28181;BME280;15464;50.988;10.318;2023-05-12T12:22:33;98961.16;;;20.59;47.15
28181;BME280;15464;50.988;10.318;2023-05-12T12:25:01;98965.63;;;20.73;46.96
28181;BME280;15464;50.988;10.318;2023-05-12T12:27:30;98964.56;;;21.23;47.97
28181;BME280;15464;50.988;10.318;2023-05-12T12:29:57;98965.69;;;20.79;44.46
28181;BME280;15464;50.988;10.318;2023-05-12T12:32:24;98964.03;;;21.13;46.63
28181;BME280;15464;50.988;10.318;2023-05-12T12:34:51;98958.41;;;21.36;44.49
28181;BME280;15464;50.988;10.318;2023-05-12T12:37:18;98969.75;;;21.65;47.63
28181;BME280;15464;50.988;10.318;2023-05-12T12:39:45;98968.28;;;21.63;45.90
28181;BME280;15464;50.988;10.318;2023-05-12T12:42:13;98973.75;;;21.35;43.23
28181;BME280;15464;50.988;10.318;2023-05-12T12:44:41;98968.75;;;21.32;41.42
28181;BME280;15464;50.988;10.318;2023-05-12T12:47:08;98974.72;;;21.00;42.03
28181;BME280;15464;50.988;10.318;2023-05-12T12:49:35;98972.09;;;20.57;42.75
28181;BME280;15464;50.988;10.318;2023-05-12T12:52:01;98971.88;;;20.52;43.99
28181;BME280;15464;50.988;10.318;2023-05-12T12:54:28;98971.97;;;20.23;43.75
28181;BME280;15464;50.988;10.318;2023-05-12T12:56:55;98977.91;;;20.33;45.39
28181;BME280;15464;50.988;10.318;2023-05-12T12:59:22;98968.09;;;20.74;43.27
28181;BME280;15464;50.988;10.318;2023-05-12T13:01:49;98966.41;;;20.67;44.35
28181;BME280;15464;50.988;10.318;2023-05-12T13:04:16;98968.31;;;20.73;44.38